sensor_id;sensor_type;location;lat;lon;timestamp;P1;durP1;ratioP1;P2;durP2;ratioP2
7693;SDS011;3889;48.162;11.510;2023-03-13T00:00:56;3.55;;;2.22;;
7693;SDS011;3889;48.162;11.510;2023-03-13T00:03:27;4.53;;;2.28;;
7693;SDS011;3889;48.162;11.510;2023-03-13T00:05:55;4.70;;;2.37;;
7693;SDS011;3889;48.162;11.510;2023-03-13T00:08:24;2.28;;;2.05;;
7693;SDS011;3889;48.162;11.510;2023-03-13T00:10:54;3.83;;;2.30;;
7693;SDS011;3889;48.162;11.510;2023-03-13T00:13:23;5.20;;;2.60;;
7693;SDS011;3889;48.162;11.510;2023-03-13T00:15:58;2.97;;;2.23;;
7693;SDS011;3889;48.162;11.510;2023-03-13T00:18:27;3.80;;;2.37;;
7693;SDS011;3889;48.162;11.510;2023-03-13T00:20:58;3.13;;;2.13;;
7693;SDS011;3889;48.162;11.510;2023-03-13T00:23:27;2.80;;;2.10;;
7693;SDS011;3889;48.162;11.510;2023-03-13T00:25:55;4.65;;;2.20;;
7693;SDS011;3889;48.162;11.510;2023-03-13T00:28:24;2.70;;;1.90;;
7693;SDS011;3889;48.162;11.510;2023-03-13T00:30:59;2.93;;;1.97;;
7693;SDS011;3889;48.162;11.510;2023-03-13T00:33:29;3.45;;;2.15;;
7693;SDS011;3889;48.162;11.510;2023-03-13T00:35:58;2.78;;;1.92;;
7693;SDS011;3889;48.162;11.510;2023-03-13T00:38:26;2.78;;;1.80;;
7693;SDS011;3889;48.162;11.510;2023-03-13T00:40:58;2.53;;;1.90;;
7693;SDS011;3889;48.162;11.510;2023-03-13T00:43:27;2.80;;;1.80;;
7693;SDS011;3889;48.162;11.510;2023-03-13T00:45:55;2.33;;;1.77;;
7693;SDS011;3889;48.162;11.510;2023-03-13T00:48:23;2.97;;;1.85;;
7693;SDS011;3889;48.162;11.510;2023-03-13T00:50:53;2.53;;;1.90;;
7693;SDS011;3889;48.162;11.510;2023-03-13T00:53:21;3.30;;;1.90;;
7693;SDS011;3889;48.162;11.510;2023-03-13T00:55:50;3.50;;;2.00;;
7693;SDS011;3889;48.162;11.510;2023-03-13T00:58:19;2.05;;;1.77;;
7693;SDS011;3889;48.162;11.510;2023-03-13T01:00:47;3.25;;;1.83;;
7693;SDS011;3889;48.162;11.510;2023-03-13T01:03:15;2.72;;;1.85;;
7693;SDS011;3889;48.162;11.510;2023-03-13T01:05:43;2.22;;;1.70;;
7693;SDS011;3889;48.162;11.510;2023-03-13T01:08:12;2.83;;;2.08;;
7693;SDS011;3889;48.162;11.510;2023-03-13T01:10:40;2.33;;;1.90;;
7693;SDS011;3889;48.162;11.510;2023-03-13T01:13:08;2.30;;;1.95;;
7693;SDS011;3889;48.162;11.510;2023-03-13T01:15:35;2.58;;;1.90;;
7693;SDS011;3889;48.162;11.510;2023-03-13T01:18:03;2.90;;;1.80;;
7693;SDS011;3889;48.162;11.510;2023-03-13T01:20:31;3.08;;;1.90;;
7693;SDS011;3889;48.162;11.510;2023-03-13T01:22:59;1.90;;;1.70;;
7693;SDS011;3889;48.162;11.510;2023-03-13T01:25:28;2.63;;;1.60;;
7693;SDS011;3889;48.162;11.510;2023-03-13T01:27:56;2.10;;;1.90;;
7693;SDS011;3889;48.162;11.510;2023-03-13T01:30:24;3.00;;;1.98;;
7693;SDS011;3889;48.162;11.510;2023-03-13T01:32:52;2.05;;;1.70;;
7693;SDS011;3889;48.162;11.510;2023-03-13T01:35:20;2.05;;;1.75;;
7693;SDS011;3889;48.162;11.510;2023-03-13T01:37:48;3.00;;;1.85;;
7693;SDS011;3889;48.162;11.510;2023-03-13T01:40:15;2.10;;;1.90;;
7693;SDS011;3889;48.162;11.510;2023-03-13T01:42:53;3.00;;;1.95;;
7693;SDS011;3889;48.162;11.510;2023-03-13T01:48:24;2.42;;;1.80;;
7693;SDS011;3889;48.162;11.510;2023-03-13T01:50:58;2.40;;;1.90;;
7693;SDS011;3889;48.162;11.510;2023-03-13T01:53:29;2.00;;;1.80;;
7693;SDS011;3889;48.162;11.510;2023-03-13T01:56:00;2.05;;;1.67;;
7693;SDS011;3889;48.162;11.510;2023-03-13T01:58:33;2.20;;;1.70;;
7693;SDS011;3889;48.162;11.510;2023-03-13T02:01:03;2.78;;;1.80;;
7693;SDS011;3889;48.162;11.510;2023-03-13T02:03:32;1.92;;;1.73;;
7693;SDS011;3889;48.162;11.510;2023-03-13T02:06:03;2.03;;;1.80;;
7693;SDS011;3889;48.162;11.510;2023-03-13T02:08:34;2.15;;;1.70;;
7693;SDS011;3889;48.162;11.510;2023-03-13T02:11:06;2.10;;;1.70;;
7693;SDS011;3889;48.162;11.510;2023-03-13T02:13:43;2.25;;;1.80;;
7693;SDS011;3889;48.162;11.510;2023-03-13T02:16:12;2.85;;;1.90;;
7693;SDS011;3889;48.162;11.510;2023-03-13T02:18:40;2.85;;;2.35;;
7693;SDS011;3889;48.162;11.510;2023-03-13T02:21:10;3.45;;;2.70;;
7693;SDS011;3889;48.162;11.510;2023-03-13T02:23:48;4.20;;;2.95;;
7693;SDS011;3889;48.162;11.510;2023-03-13T02:26:21;3.97;;;2.90;;
7693;SDS011;3889;48.162;11.510;2023-03-13T02:28:49;3.90;;;2.95;;
7693;SDS011;3889;48.162;11.510;2023-03-13T02:31:17;4.35;;;2.85;;
7693;SDS011;3889;48.162;11.510;2023-03-13T02:33:45;4.53;;;3.00;;
7693;SDS011;3889;48.162;11.510;2023-03-13T02:36:13;3.65;;;2.95;;
7693;SDS011;3889;48.162;11.510;2023-03-13T02:38:43;3.45;;;2.70;;
7693;SDS011;3889;48.162;11.510;2023-03-13T02:41:16;3.90;;;3.05;;
7693;SDS011;3889;48.162;11.510;2023-03-13T02:43:47;3.33;;;2.60;;
7693;SDS011;3889;48.162;11.510;2023-03-13T02:46:16;4.43;;;2.67;;
7693;SDS011;3889;48.162;11.510;2023-03-13T02:48:46;4.18;;;3.00;;
7693;SDS011;3889;48.162;11.510;2023-03-13T02:51:17;3.25;;;2.70;;
7693;SDS011;3889;48.162;11.510;2023-03-13T02:53:49;3.25;;;2.95;;
7693;SDS011;3889;48.162;11.510;2023-03-13T02:56:19;3.72;;;3.03;;
7693;SDS011;3889;48.162;11.510;2023-03-13T02:58:52;4.30;;;3.00;;
7693;SDS011;3889;48.162;11.510;2023-03-13T03:01:19;3.33;;;2.90;;
7693;SDS011;3889;48.162;11.510;2023-03-13T03:03:47;2.80;;;2.50;;
7693;SDS011;3889;48.162;11.510;2023-03-13T03:06:16;3.40;;;2.70;;
7693;SDS011;3889;48.162;11.510;2023-03-13T03:08:44;3.00;;;2.30;;
7693;SDS011;3889;48.162;11.510;2023-03-13T03:11:12;3.08;;;2.30;;
7693;SDS011;3889;48.162;11.510;2023-03-13T03:13:40;2.30;;;2.00;;
7693;SDS011;3889;48.162;11.510;2023-03-13T03:16:10;2.30;;;1.90;;
7693;SDS011;3889;48.162;11.510;2023-03-13T03:18:43;1.92;;;1.80;;
7693;SDS011;3889;48.162;11.510;2023-03-13T03:21:11;2.40;;;1.48;;
7693;SDS011;3889;48.162;11.510;2023-03-13T03:23:39;1.70;;;1.60;;
7693;SDS011;3889;48.162;11.510;2023-03-13T03:26:07;1.77;;;1.60;;
7693;SDS011;3889;48.162;11.510;2023-03-13T03:28:35;1.73;;;1.50;;
7693;SDS011;3889;48.162;11.510;2023-03-13T03:31:03;1.67;;;1.55;;
7693;SDS011;3889;48.162;11.510;2023-03-13T03:33:33;1.40;;;1.30;;
7693;SDS011;3889;48.162;11.510;2023-03-13T03:36:02;1.98;;;1.30;;
7693;SDS011;3889;48.162;11.510;2023-03-13T03:38:32;1.65;;;1.20;;
7693;SDS011;3889;48.162;11.510;2023-03-13T03:41:00;1.50;;;1.17;;
7693;SDS011;3889;48.162;11.510;2023-03-13T03:43:28;1.70;;;1.20;;
7693;SDS011;3889;48.162;11.510;2023-03-13T03:45:56;1.20;;;1.10;;
7693;SDS011;3889;48.162;11.510;2023-03-13T03:48:24;1.50;;;1.10;;
7693;SDS011;3889;48.162;11.510;2023-03-13T03:50:53;1.42;;;1.23;;
7693;SDS011;3889;48.162;11.510;2023-03-13T03:53:21;1.40;;;1.30;;
7693;SDS011;3889;48.162;11.510;2023-03-13T03:55:49;1.30;;;1.17;;
7693;SDS011;3889;48.162;11.510;2023-03-13T03:58:17;1.20;;;1.10;;
7693;SDS011;3889;48.162;11.510;2023-03-13T04:00:45;1.40;;;1.25;;
7693;SDS011;3889;48.162;11.510;2023-03-13T04:03:14;1.30;;;1.20;;
7693;SDS011;3889;48.162;11.510;2023-03-13T04:05:42;1.20;;;1.10;;
7693;SDS011;3889;48.162;11.510;2023-03-13T04:08:12;1.50;;;1.30;;
7693;SDS011;3889;48.162;11.510;2023-03-13T04:10:40;1.42;;;1.25;;
7693;SDS011;3889;48.162;11.510;2023-03-13T04:13:08;1.42;;;1.27;;
7693;SDS011;3889;48.162;11.510;2023-03-13T04:15:36;1.63;;;1.17;;
7693;SDS011;3889;48.162;11.510;2023-03-13T04:18:05;1.63;;;1.20;;
7693;SDS011;3889;48.162;11.510;2023-03-13T04:20:33;1.73;;;1.20;;
7693;SDS011;3889;48.162;11.510;2023-03-13T04:23:01;1.40;;;1.30;;
7693;SDS011;3889;48.162;11.510;2023-03-13T04:25:30;1.30;;;1.20;;
7693;SDS011;3889;48.162;11.510;2023-03-13T04:27:58;1.48;;;1.33;;
7693;SDS011;3889;48.162;11.510;2023-03-13T04:30:26;1.80;;;1.23;;
7693;SDS011;3889;48.162;11.510;2023-03-13T04:32:54;1.27;;;1.17;;
7693;SDS011;3889;48.162;11.510;2023-03-13T04:35:22;1.08;;;0.98;;
7693;SDS011;3889;48.162;11.510;2023-03-13T04:37:50;1.40;;;1.00;;
7693;SDS011;3889;48.162;11.510;2023-03-13T04:40:17;1.92;;;1.17;;
7693;SDS011;3889;48.162;11.510;2023-03-13T04:42:47;1.33;;;1.02;;
7693;SDS011;3889;48.162;11.510;2023-03-13T04:45:15;1.15;;;1.10;;
7693;SDS011;3889;48.162;11.510;2023-03-13T04:47:42;1.42;;;1.30;;
7693;SDS011;3889;48.162;11.510;2023-03-13T04:50:12;1.95;;;1.30;;
7693;SDS011;3889;48.162;11.510;2023-03-13T04:52:39;2.08;;;1.20;;
7693;SDS011;3889;48.162;11.510;2023-03-13T04:55:08;1.30;;;1.20;;
7693;SDS011;3889;48.162;11.510;2023-03-13T04:57:35;1.30;;;1.20;;
7693;SDS011;3889;48.162;11.510;2023-03-13T05:00:05;1.35;;;1.25;;
7693;SDS011;3889;48.162;11.510;2023-03-13T05:02:35;1.50;;;1.40;;
7693;SDS011;3889;48.162;11.510;2023-03-13T05:05:03;1.50;;;1.40;;
7693;SDS011;3889;48.162;11.510;2023-03-13T05:07:31;2.40;;;1.40;;
7693;SDS011;3889;48.162;11.510;2023-03-13T05:09:59;1.30;;;1.10;;
7693;SDS011;3889;48.162;11.510;2023-03-13T05:12:27;1.25;;;1.15;;
7693;SDS011;3889;48.162;11.510;2023-03-13T05:14:55;2.65;;;1.20;;
7693;SDS011;3889;48.162;11.510;2023-03-13T05:17:24;1.77;;;1.08;;
7693;SDS011;3889;48.162;11.510;2023-03-13T05:19:52;1.30;;;1.20;;
7693;SDS011;3889;48.162;11.510;2023-03-13T05:22:20;2.25;;;1.38;;
7693;SDS011;3889;48.162;11.510;2023-03-13T05:24:47;1.63;;;1.40;;
7693;SDS011;3889;48.162;11.510;2023-03-13T05:27:15;1.48;;;1.20;;
7693;SDS011;3889;48.162;11.510;2023-03-13T05:29:43;1.63;;;1.20;;
7693;SDS011;3889;48.162;11.510;2023-03-13T05:32:11;1.50;;;1.30;;
7693;SDS011;3889;48.162;11.510;2023-03-13T05:34:40;1.65;;;1.17;;
7693;SDS011;3889;48.162;11.510;2023-03-13T05:37:08;1.80;;;1.20;;
7693;SDS011;3889;48.162;11.510;2023-03-13T05:39:36;1.40;;;1.30;;
7693;SDS011;3889;48.162;11.510;2023-03-13T05:42:04;1.40;;;1.30;;
7693;SDS011;3889;48.162;11.510;2023-03-13T05:44:32;1.50;;;1.20;;
7693;SDS011;3889;48.162;11.510;2023-03-13T05:47:00;1.70;;;1.20;;
7693;SDS011;3889;48.162;11.510;2023-03-13T05:49:29;1.50;;;1.30;;
7693;SDS011;3889;48.162;11.510;2023-03-13T05:51:59;1.45;;;1.20;;
7693;SDS011;3889;48.162;11.510;2023-03-13T05:54:26;1.85;;;1.15;;
7693;SDS011;3889;48.162;11.510;2023-03-13T05:56:54;1.30;;;1.20;;
7693;SDS011;3889;48.162;11.510;2023-03-13T05:59:23;1.70;;;1.17;;
7693;SDS011;3889;48.162;11.510;2023-03-13T06:01:52;1.35;;;1.25;;
7693;SDS011;3889;48.162;11.510;2023-03-13T06:04:20;1.83;;;1.20;;
7693;SDS011;3889;48.162;11.510;2023-03-13T06:06:49;2.13;;;1.13;;
7693;SDS011;3889;48.162;11.510;2023-03-13T06:09:18;1.25;;;1.10;;
7693;SDS011;3889;48.162;11.510;2023-03-13T06:11:46;1.20;;;1.10;;
7693;SDS011;3889;48.162;11.510;2023-03-13T06:14:14;1.20;;;1.10;;
7693;SDS011;3889;48.162;11.510;2023-03-13T06:16:42;1.30;;;1.20;;
7693;SDS011;3889;48.162;11.510;2023-03-13T06:19:10;1.58;;;1.30;;
7693;SDS011;3889;48.162;11.510;2023-03-13T06:21:38;1.30;;;1.20;;
7693;SDS011;3889;48.162;11.510;2023-03-13T06:24:06;1.52;;;1.33;;
7693;SDS011;3889;48.162;11.510;2023-03-13T06:26:36;1.55;;;1.20;;
7693;SDS011;3889;48.162;11.510;2023-03-13T06:29:04;2.10;;;1.20;;
7693;SDS011;3889;48.162;11.510;2023-03-13T06:31:31;1.63;;;1.23;;
7693;SDS011;3889;48.162;11.510;2023-03-13T06:33:59;1.90;;;1.23;;
7693;SDS011;3889;48.162;11.510;2023-03-13T06:36:27;1.77;;;1.40;;
7693;SDS011;3889;48.162;11.510;2023-03-13T06:38:55;2.60;;;1.40;;
7693;SDS011;3889;48.162;11.510;2023-03-13T06:41:24;2.08;;;1.30;;
7693;SDS011;3889;48.162;11.510;2023-03-13T06:43:54;2.53;;;1.20;;
7693;SDS011;3889;48.162;11.510;2023-03-13T06:46:22;2.00;;;1.30;;
7693;SDS011;3889;48.162;11.510;2023-03-13T06:48:51;1.73;;;1.50;;
7693;SDS011;3889;48.162;11.510;2023-03-13T06:51:20;1.70;;;1.45;;
7693;SDS011;3889;48.162;11.510;2023-03-13T06:53:48;2.20;;;1.60;;
7693;SDS011;3889;48.162;11.510;2023-03-13T06:56:17;4.07;;;1.98;;
7693;SDS011;3889;48.162;11.510;2023-03-13T06:58:46;4.15;;;2.13;;
7693;SDS011;3889;48.162;11.510;2023-03-13T07:01:16;2.35;;;1.80;;
7693;SDS011;3889;48.162;11.510;2023-03-13T07:03:45;2.10;;;1.80;;
7693;SDS011;3889;48.162;11.510;2023-03-13T07:06:14;2.20;;;1.50;;
7693;SDS011;3889;48.162;11.510;2023-03-13T07:08:42;1.98;;;1.55;;
7693;SDS011;3889;48.162;11.510;2023-03-13T07:11:11;1.77;;;1.30;;
7693;SDS011;3889;48.162;11.510;2023-03-13T07:13:40;2.35;;;1.60;;
7693;SDS011;3889;48.162;11.510;2023-03-13T07:16:08;1.75;;;1.50;;
7693;SDS011;3889;48.162;11.510;2023-03-13T07:18:39;1.80;;;1.20;;
7693;SDS011;3889;48.162;11.510;2023-03-13T07:21:10;2.30;;;1.27;;
7693;SDS011;3889;48.162;11.510;2023-03-13T07:23:38;1.45;;;1.20;;
7693;SDS011;3889;48.162;11.510;2023-03-13T07:26:07;2.50;;;1.00;;
7693;SDS011;3889;48.162;11.510;2023-03-13T07:28:37;1.98;;;1.10;;
7693;SDS011;3889;48.162;11.510;2023-03-13T07:31:05;2.70;;;1.40;;
7693;SDS011;3889;48.162;11.510;2023-03-13T07:33:34;3.40;;;1.80;;
7693;SDS011;3889;48.162;11.510;2023-03-13T07:36:04;3.85;;;2.60;;
7693;SDS011;3889;48.162;11.510;2023-03-13T07:38:32;1.45;;;1.23;;
7693;SDS011;3889;48.162;11.510;2023-03-13T07:41:00;2.47;;;1.40;;
7693;SDS011;3889;48.162;11.510;2023-03-13T07:43:28;2.25;;;1.40;;
7693;SDS011;3889;48.162;11.510;2023-03-13T07:45:57;2.33;;;1.40;;
7693;SDS011;3889;48.162;11.510;2023-03-13T07:48:27;2.35;;;1.30;;
7693;SDS011;3889;48.162;11.510;2023-03-13T07:50:56;3.10;;;1.47;;
7693;SDS011;3889;48.162;11.510;2023-03-13T07:53:26;1.67;;;1.48;;
7693;SDS011;3889;48.162;11.510;2023-03-13T07:55:55;2.27;;;1.60;;
7693;SDS011;3889;48.162;11.510;2023-03-13T07:58:25;2.45;;;1.38;;
7693;SDS011;3889;48.162;11.510;2023-03-13T08:00:54;1.80;;;1.33;;
7693;SDS011;3889;48.162;11.510;2023-03-13T08:03:23;2.97;;;1.40;;
7693;SDS011;3889;48.162;11.510;2023-03-13T08:05:58;3.10;;;1.40;;
7693;SDS011;3889;48.162;11.510;2023-03-13T08:08:28;2.75;;;1.55;;
7693;SDS011;3889;48.162;11.510;2023-03-13T08:10:59;2.85;;;1.30;;
7693;SDS011;3889;48.162;11.510;2023-03-13T08:13:27;1.57;;;1.30;;
7693;SDS011;3889;48.162;11.510;2023-03-13T08:16:03;2.42;;;1.50;;
7693;SDS011;3889;48.162;11.510;2023-03-13T08:18:31;3.08;;;2.05;;
7693;SDS011;3889;48.162;11.510;2023-03-13T08:21:01;2.10;;;1.43;;
7693;SDS011;3889;48.162;11.510;2023-03-13T08:23:31;3.33;;;1.30;;
7693;SDS011;3889;48.162;11.510;2023-03-13T08:26:04;3.10;;;1.30;;
7693;SDS011;3889;48.162;11.510;2023-03-13T08:28:33;3.20;;;1.30;;
7693;SDS011;3889;48.162;11.510;2023-03-13T08:31:11;3.00;;;1.30;;
7693;SDS011;3889;48.162;11.510;2023-03-13T08:33:41;1.38;;;1.10;;
7693;SDS011;3889;48.162;11.510;2023-03-13T08:36:10;1.80;;;1.30;;
7693;SDS011;3889;48.162;11.510;2023-03-13T08:38:40;3.00;;;1.02;;
7693;SDS011;3889;48.162;11.510;2023-03-13T08:41:11;1.73;;;1.20;;
7693;SDS011;3889;48.162;11.510;2023-03-13T08:43:40;1.30;;;1.10;;
7693;SDS011;3889;48.162;11.510;2023-03-13T08:46:08;1.50;;;1.10;;
7693;SDS011;3889;48.162;11.510;2023-03-13T08:48:36;1.20;;;0.90;;
7693;SDS011;3889;48.162;11.510;2023-03-13T08:51:05;1.58;;;0.90;;
7693;SDS011;3889;48.162;11.510;2023-03-13T08:53:34;1.30;;;0.90;;
7693;SDS011;3889;48.162;11.510;2023-03-13T08:56:06;1.88;;;1.10;;
7693;SDS011;3889;48.162;11.510;2023-03-13T08:58:35;2.03;;;1.17;;
7693;SDS011;3889;48.162;11.510;2023-03-13T09:01:03;1.20;;;1.10;;
7693;SDS011;3889;48.162;11.510;2023-03-13T09:03:33;1.00;;;0.90;;
7693;SDS011;3889;48.162;11.510;2023-03-13T09:06:03;1.30;;;1.00;;
7693;SDS011;3889;48.162;11.510;2023-03-13T09:08:32;1.02;;;0.90;;
7693;SDS011;3889;48.162;11.510;2023-03-13T09:11:01;1.27;;;1.05;;
7693;SDS011;3889;48.162;11.510;2023-03-13T09:13:31;1.48;;;1.33;;
7693;SDS011;3889;48.162;11.510;2023-03-13T09:16:01;1.33;;;1.02;;
7693;SDS011;3889;48.162;11.510;2023-03-13T09:18:31;1.50;;;1.17;;
7693;SDS011;3889;48.162;11.510;2023-03-13T09:21:00;2.70;;;1.40;;
7693;SDS011;3889;48.162;11.510;2023-03-13T09:23:28;2.65;;;1.33;;
7693;SDS011;3889;48.162;11.510;2023-03-13T09:25:56;2.13;;;1.20;;
7693;SDS011;3889;48.162;11.510;2023-03-13T09:28:24;3.38;;;1.40;;
7693;SDS011;3889;48.162;11.510;2023-03-13T09:30:54;2.97;;;2.22;;
7693;SDS011;3889;48.162;11.510;2023-03-13T09:33:22;0.90;;;0.90;;
7693;SDS011;3889;48.162;11.510;2023-03-13T09:35:50;1.98;;;0.90;;
7693;SDS011;3889;48.162;11.510;2023-03-13T09:38:19;1.75;;;0.98;;
7693;SDS011;3889;48.162;11.510;2023-03-13T09:40:48;1.30;;;0.90;;
7693;SDS011;3889;48.162;11.510;2023-03-13T09:43:34;1.45;;;0.90;;
7693;SDS011;3889;48.162;11.510;2023-03-13T09:46:10;0.80;;;0.80;;
7693;SDS011;3889;48.162;11.510;2023-03-13T09:48:42;1.07;;;0.90;;
7693;SDS011;3889;48.162;11.510;2023-03-13T09:51:14;1.10;;;0.77;;
7693;SDS011;3889;48.162;11.510;2023-03-13T09:53:46;1.33;;;0.85;;
7693;SDS011;3889;48.162;11.510;2023-03-13T09:56:19;1.02;;;0.98;;
7693;SDS011;3889;48.162;11.510;2023-03-13T09:58:51;1.70;;;0.90;;
7693;SDS011;3889;48.162;11.510;2023-03-13T10:01:25;1.42;;;0.90;;
7693;SDS011;3889;48.162;11.510;2023-03-13T10:04:05;3.83;;;0.90;;
7693;SDS011;3889;48.162;11.510;2023-03-13T10:06:40;0.88;;;0.80;;
7693;SDS011;3889;48.162;11.510;2023-03-13T10:09:14;0.75;;;0.70;;
7693;SDS011;3889;48.162;11.510;2023-03-13T10:11:47;0.60;;;0.60;;
7693;SDS011;3889;48.162;11.510;2023-03-13T10:14:26;10.48;;;5.85;;
7693;SDS011;3889;48.162;11.510;2023-03-13T10:17:00;0.52;;;0.52;;
7693;SDS011;3889;48.162;11.510;2023-03-13T10:19:34;1.00;;;0.73;;
7693;SDS011;3889;48.162;11.510;2023-03-13T10:22:08;0.70;;;0.70;;
7693;SDS011;3889;48.162;11.510;2023-03-13T10:24:41;1.63;;;0.70;;
7693;SDS011;3889;48.162;11.510;2023-03-13T10:27:15;0.98;;;0.75;;
7693;SDS011;3889;48.162;11.510;2023-03-13T10:29:43;1.58;;;0.70;;
7693;SDS011;3889;48.162;11.510;2023-03-13T10:32:13;1.35;;;0.85;;
7693;SDS011;3889;48.162;11.510;2023-03-13T10:34:48;0.68;;;0.63;;
7693;SDS011;3889;48.162;11.510;2023-03-13T10:37:22;0.70;;;0.70;;
7693;SDS011;3889;48.162;11.510;2023-03-13T10:39:51;1.95;;;0.70;;
7693;SDS011;3889;48.162;11.510;2023-03-13T10:42:20;0.70;;;0.70;;
7693;SDS011;3889;48.162;11.510;2023-03-13T10:44:57;1.70;;;0.70;;
7693;SDS011;3889;48.162;11.510;2023-03-13T10:47:27;1.25;;;0.70;;
7693;SDS011;3889;48.162;11.510;2023-03-13T10:50:00;0.90;;;0.70;;
7693;SDS011;3889;48.162;11.510;2023-03-13T10:52:33;0.60;;;0.60;;
7693;SDS011;3889;48.162;11.510;2023-03-13T10:55:09;0.60;;;0.60;;
7693;SDS011;3889;48.162;11.510;2023-03-13T10:57:38;0.82;;;0.70;;
7693;SDS011;3889;48.162;11.510;2023-03-13T11:00:23;1.80;;;0.70;;
7693;SDS011;3889;48.162;11.510;2023-03-13T11:02:57;0.83;;;0.60;;
7693;SDS011;3889;48.162;11.510;2023-03-13T11:05:29;1.63;;;0.80;;
7693;SDS011;3889;48.162;11.510;2023-03-13T11:08:09;1.97;;;0.70;;
7693;SDS011;3889;48.162;11.510;2023-03-13T11:10:42;0.60;;;0.60;;
7693;SDS011;3889;48.162;11.510;2023-03-13T11:13:25;0.73;;;0.57;;
7693;SDS011;3889;48.162;11.510;2023-03-13T11:16:04;0.60;;;0.60;;
7693;SDS011;3889;48.162;11.510;2023-03-13T11:18:52;0.60;;;0.60;;
7693;SDS011;3889;48.162;11.510;2023-03-13T11:21:48;1.00;;;0.63;;
7693;SDS011;3889;48.162;11.510;2023-03-13T11:24:27;1.73;;;0.55;;
7693;SDS011;3889;48.162;11.510;2023-03-13T11:27:04;0.65;;;0.65;;
7693;SDS011;3889;48.162;11.510;2023-03-13T11:29:43;0.70;;;0.70;;
7693;SDS011;3889;48.162;11.510;2023-03-13T11:32:21;0.68;;;0.50;;
7693;SDS011;3889;48.162;11.510;2023-03-13T11:34:55;1.50;;;0.60;;
7693;SDS011;3889;48.162;11.510;2023-03-13T11:37:26;1.65;;;0.80;;
7693;SDS011;3889;48.162;11.510;2023-03-13T11:39:58;1.10;;;0.60;;
7693;SDS011;3889;48.162;11.510;2023-03-13T11:42:42;1.10;;;0.70;;
7693;SDS011;3889;48.162;11.510;2023-03-13T11:48:25;2.08;;;0.90;;
7693;SDS011;3889;48.162;11.510;2023-03-13T11:51:11;0.88;;;0.70;;
7693;SDS011;3889;48.162;11.510;2023-03-13T11:53:53;1.08;;;0.60;;
7693;SDS011;3889;48.162;11.510;2023-03-13T11:56:31;1.90;;;1.10;;
7693;SDS011;3889;48.162;11.510;2023-03-13T11:59:13;0.70;;;0.70;;
7693;SDS011;3889;48.162;11.510;2023-03-13T12:01:52;1.23;;;0.90;;
7693;SDS011;3889;48.162;11.510;2023-03-13T12:04:24;1.10;;;0.70;;
7693;SDS011;3889;48.162;11.510;2023-03-13T12:07:00;0.93;;;0.77;;
7693;SDS011;3889;48.162;11.510;2023-03-13T12:09:32;1.40;;;1.00;;
7693;SDS011;3889;48.162;11.510;2023-03-13T12:12:04;1.25;;;0.88;;
7693;SDS011;3889;48.162;11.510;2023-03-13T12:14:42;1.50;;;0.73;;
7693;SDS011;3889;48.162;11.510;2023-03-13T12:17:15;1.45;;;0.88;;
7693;SDS011;3889;48.162;11.510;2023-03-13T12:19:55;2.40;;;1.00;;
7693;SDS011;3889;48.162;11.510;2023-03-13T12:22:29;1.63;;;0.93;;
7693;SDS011;3889;48.162;11.510;2023-03-13T12:25:02;1.70;;;0.90;;
7693;SDS011;3889;48.162;11.510;2023-03-13T12:27:37;1.27;;;0.93;;
7693;SDS011;3889;48.162;11.510;2023-03-13T12:30:13;2.23;;;1.00;;
7693;SDS011;3889;48.162;11.510;2023-03-13T12:32:50;1.98;;;1.00;;
7693;SDS011;3889;48.162;11.510;2023-03-13T12:35:25;2.33;;;1.08;;
7693;SDS011;3889;48.162;11.510;2023-03-13T12:37:59;1.05;;;0.95;;
7693;SDS011;3889;48.162;11.510;2023-03-13T12:40:32;5.60;;;2.92;;
7693;SDS011;3889;48.162;11.510;2023-03-13T12:43:05;1.80;;;1.00;;
7693;SDS011;3889;48.162;11.510;2023-03-13T12:45:44;1.88;;;1.20;;
7693;SDS011;3889;48.162;11.510;2023-03-13T12:48:36;2.80;;;1.20;;
7693;SDS011;3889;48.162;11.510;2023-03-13T12:51:19;2.75;;;0.95;;
7693;SDS011;3889;48.162;11.510;2023-03-13T12:54:05;2.13;;;0.80;;
7693;SDS011;3889;48.162;11.510;2023-03-13T12:56:52;2.27;;;1.20;;
7693;SDS011;3889;48.162;11.510;2023-03-13T12:59:27;1.90;;;1.00;;
7693;SDS011;3889;48.162;11.510;2023-03-13T13:02:00;2.03;;;1.10;;
7693;SDS011;3889;48.162;11.510;2023-03-13T13:04:29;2.40;;;1.30;;
7693;SDS011;3889;48.162;11.510;2023-03-13T13:06:59;1.52;;;0.85;;
7693;SDS011;3889;48.162;11.510;2023-03-13T13:09:31;1.80;;;1.17;;
7693;SDS011;3889;48.162;11.510;2023-03-13T13:12:01;1.80;;;1.10;;
7693;SDS011;3889;48.162;11.510;2023-03-13T13:14:54;1.53;;;1.00;;
7693;SDS011;3889;48.162;11.510;2023-03-13T13:17:39;1.27;;;1.05;;
7693;SDS011;3889;48.162;11.510;2023-03-13T13:20:41;2.35;;;1.20;;
7693;SDS011;3889;48.162;11.510;2023-03-13T13:23:17;1.95;;;1.10;;
7693;SDS011;3889;48.162;11.510;2023-03-13T13:25:53;2.50;;;0.93;;
7693;SDS011;3889;48.162;11.510;2023-03-13T13:28:31;2.25;;;1.00;;
7693;SDS011;3889;48.162;11.510;2023-03-13T13:31:00;2.42;;;1.40;;
7693;SDS011;3889;48.162;11.510;2023-03-13T13:33:48;2.00;;;1.05;;
7693;SDS011;3889;48.162;11.510;2023-03-13T13:36:26;2.35;;;1.30;;
7693;SDS011;3889;48.162;11.510;2023-03-13T13:39:20;2.70;;;1.30;;
7693;SDS011;3889;48.162;11.510;2023-03-13T13:42:00;1.88;;;1.08;;
7693;SDS011;3889;48.162;11.510;2023-03-13T13:45:18;2.58;;;1.23;;
7693;SDS011;3889;48.162;11.510;2023-03-13T13:47:50;2.15;;;1.13;;
7693;SDS011;3889;48.162;11.510;2023-03-13T13:51:18;1.95;;;1.15;;
7693;SDS011;3889;48.162;11.510;2023-03-13T13:53:54;1.92;;;1.00;;
7693;SDS011;3889;48.162;11.510;2023-03-13T13:56:28;4.22;;;1.30;;
7693;SDS011;3889;48.162;11.510;2023-03-13T13:59:13;3.92;;;1.02;;
7693;SDS011;3889;48.162;11.510;2023-03-13T14:02:04;1.90;;;1.00;;
7693;SDS011;3889;48.162;11.510;2023-03-13T14:04:47;1.60;;;1.10;;
7693;SDS011;3889;48.162;11.510;2023-03-13T14:07:23;1.63;;;0.93;;
7693;SDS011;3889;48.162;11.510;2023-03-13T14:09:58;2.47;;;1.15;;
7693;SDS011;3889;48.162;11.510;2023-03-13T14:12:32;1.90;;;1.20;;
7693;SDS011;3889;48.162;11.510;2023-03-13T14:15:08;1.23;;;1.00;;
7693;SDS011;3889;48.162;11.510;2023-03-13T14:17:40;1.73;;;0.98;;
7693;SDS011;3889;48.162;11.510;2023-03-13T14:20:21;3.85;;;0.98;;
7693;SDS011;3889;48.162;11.510;2023-03-13T14:22:54;1.40;;;0.80;;
7693;SDS011;3889;48.162;11.510;2023-03-13T14:25:26;3.60;;;1.00;;
7693;SDS011;3889;48.162;11.510;2023-03-13T14:28:13;2.78;;;1.02;;
7693;SDS011;3889;48.162;11.510;2023-03-13T14:30:44;2.20;;;1.00;;
7693;SDS011;3889;48.162;11.510;2023-03-13T14:33:13;2.70;;;1.00;;
7693;SDS011;3889;48.162;11.510;2023-03-13T14:35:42;1.70;;;0.90;;
7693;SDS011;3889;48.162;11.510;2023-03-13T14:38:14;3.77;;;1.20;;
7693;SDS011;3889;48.162;11.510;2023-03-13T14:40:44;3.88;;;1.40;;
7693;SDS011;3889;48.162;11.510;2023-03-13T14:43:17;3.72;;;1.20;;
7693;SDS011;3889;48.162;11.510;2023-03-13T14:45:52;1.00;;;0.85;;
7693;SDS011;3889;48.162;11.510;2023-03-13T14:48:21;4.20;;;1.63;;
7693;SDS011;3889;48.162;11.510;2023-03-13T14:50:53;5.50;;;1.90;;
7693;SDS011;3889;48.162;11.510;2023-03-13T14:53:51;5.78;;;1.40;;
7693;SDS011;3889;48.162;11.510;2023-03-13T14:56:28;1.83;;;1.00;;
7693;SDS011;3889;48.162;11.510;2023-03-13T14:59:05;2.15;;;1.08;;
7693;SDS011;3889;48.162;11.510;2023-03-13T15:01:35;2.33;;;0.80;;
7693;SDS011;3889;48.162;11.510;2023-03-13T15:04:03;2.40;;;1.13;;
7693;SDS011;3889;48.162;11.510;2023-03-13T15:06:31;2.42;;;0.77;;
7693;SDS011;3889;48.162;11.510;2023-03-13T15:09:18;1.95;;;1.00;;
7693;SDS011;3889;48.162;11.510;2023-03-13T15:11:51;2.40;;;1.00;;
7693;SDS011;3889;48.162;11.510;2023-03-13T15:14:31;1.80;;;0.90;;
7693;SDS011;3889;48.162;11.510;2023-03-13T15:17:03;2.92;;;1.42;;
7693;SDS011;3889;48.162;11.510;2023-03-13T15:19:40;1.55;;;1.00;;
7693;SDS011;3889;48.162;11.510;2023-03-13T15:22:10;1.13;;;0.93;;
7693;SDS011;3889;48.162;11.510;2023-03-13T15:24:40;2.35;;;0.95;;
7693;SDS011;3889;48.162;11.510;2023-03-13T15:27:14;2.03;;;1.30;;
7693;SDS011;3889;48.162;11.510;2023-03-13T15:29:43;2.42;;;0.82;;
7693;SDS011;3889;48.162;11.510;2023-03-13T15:32:15;2.88;;;2.10;;
7693;SDS011;3889;48.162;11.510;2023-03-13T15:34:48;1.60;;;1.15;;